sensor_id;sensor_type;location;lat;lon;timestamp;pressure;altitude;pressure_sealevel;temperature;humidity
72038;BME280;59900;50.788;12.904;2024-01-30T00:00:54;98782.44;;;5.43;52.84
72038;BME280;59900;50.788;12.904;2024-01-30T00:03:20;98775.59;;;5.42;52.91
72038;BME280;59900;50.788;12.904;2024-01-30T00:05:45;98775.44;;;5.44;52.52
72038;BME280;59900;50.788;12.904;2024-01-30T00:08:10;98773.53;;;5.46;53.11
72038;BME280;59900;50.788;12.904;2024-01-30T00:10:35;98778.84;;;5.35;54.10
72038;BME280;59900;50.788;12.904;2024-01-30T00:13:01;98780.72;;;5.23;54.40
72038;BME280;59900;50.788;12.904;2024-01-30T00:15:27;98786.03;;;5.12;54.96
72038;BME280;59900;50.788;12.904;2024-01-30T00:17:52;98777.91;;;5.05;54.69
72038;BME280;59900;50.788;12.904;2024-01-30T00:20:17;98786.97;;;5.01;55.14
72038;BME280;59900;50.788;12.904;2024-01-30T00:22:43;98783.78;;;4.98;54.93
72038;BME280;59900;50.788;12.904;2024-01-30T00:25:08;98785.97;;;4.93;54.96
72038;BME280;59900;50.788;12.904;2024-01-30T00:27:33;98789.78;;;4.89;55.37
72038;BME280;59900;50.788;12.904;2024-01-30T00:29:58;98791.13;;;4.83;55.88
72038;BME280;59900;50.788;12.904;2024-01-30T00:32:24;98787.81;;;4.81;55.59
72038;BME280;59900;50.788;12.904;2024-01-30T00:34:49;98782.63;;;4.81;55.87
72038;BME280;59900;50.788;12.904;2024-01-30T00:37:14;98785.34;;;4.80;55.70
72038;BME280;59900;50.788;12.904;2024-01-30T00:39:39;98788.19;;;4.77;55.95
72038;BME280;59900;50.788;12.904;2024-01-30T00:42:05;98787.88;;;4.70;56.00
72038;BME280;59900;50.788;12.904;2024-01-30T00:44:30;98788.53;;;4.63;56.37
72038;BME280;59900;50.788;12.904;2024-01-30T00:46:55;98787.13;;;4.59;56.74
72038;BME280;59900;50.788;12.904;2024-01-30T00:49:20;98781.63;;;4.52;56.62
72038;BME280;59900;50.788;12.904;2024-01-30T00:51:46;98784.09;;;4.53;57.02
72038;BME280;59900;50.788;12.904;2024-01-30T00:54:11;98772.41;;;4.48;56.74
72038;BME280;59900;50.788;12.904;2024-01-30T00:56:36;98775.13;;;4.46;56.73
72038;BME280;59900;50.788;12.904;2024-01-30T00:59:01;98773.50;;;4.45;57.05
72038;BME280;59900;50.788;12.904;2024-01-30T01:01:27;98781.31;;;4.45;56.81
72038;BME280;59900;50.788;12.904;2024-01-30T01:03:52;98772.34;;;4.38;57.06
72038;BME280;59900;50.788;12.904;2024-01-30T01:06:17;98777.53;;;4.38;57.50
72038;BME280;59900;50.788;12.904;2024-01-30T01:08:42;98776.59;;;4.39;57.29
72038;BME280;59900;50.788;12.904;2024-01-30T01:11:08;98774.84;;;4.40;57.69
72038;BME280;59900;50.788;12.904;2024-01-30T01:13:33;98782.50;;;4.41;57.66
72038;BME280;59900;50.788;12.904;2024-01-30T01:15:58;98779.06;;;4.41;57.81
72038;BME280;59900;50.788;12.904;2024-01-30T01:18:23;98778.22;;;4.40;57.72
72038;BME280;59900;50.788;12.904;2024-01-30T01:20:49;98768.53;;;4.42;58.21
72038;BME280;59900;50.788;12.904;2024-01-30T01:23:14;98768.06;;;4.37;58.15
72038;BME280;59900;50.788;12.904;2024-01-30T01:25:39;98772.75;;;4.34;58.12
72038;BME280;59900;50.788;12.904;2024-01-30T01:28:05;98766.25;;;4.28;58.35
72038;BME280;59900;50.788;12.904;2024-01-30T01:30:30;98771.47;;;4.28;58.51
72038;BME280;59900;50.788;12.904;2024-01-30T01:32:55;98766.38;;;4.27;58.25
72038;BME280;59900;50.788;12.904;2024-01-30T01:35:22;98760.97;;;4.19;58.66
72038;BME280;59900;50.788;12.904;2024-01-30T01:37:49;98766.03;;;4.20;58.41
72038;BME280;59900;50.788;12.904;2024-01-30T01:40:23;98761.66;;;4.21;58.84
72038;BME280;59900;50.788;12.904;2024-01-30T01:42:49;98761.56;;;4.22;58.45
72038;BME280;59900;50.788;12.904;2024-01-30T01:45:15;98762.50;;;4.21;58.31
72038;BME280;59900;50.788;12.904;2024-01-30T01:47:40;98764.28;;;4.21;58.33
72038;BME280;59900;50.788;12.904;2024-01-30T01:50:06;98758.25;;;4.20;58.20
72038;BME280;59900;50.788;12.904;2024-01-30T01:52:32;98762.50;;;4.21;58.34
72038;BME280;59900;50.788;12.904;2024-01-30T01:54:58;98758.97;;;4.22;58.49
72038;BME280;59900;50.788;12.904;2024-01-30T01:57:23;98761.56;;;4.22;58.61
72038;BME280;59900;50.788;12.904;2024-01-30T01:59:48;98765.09;;;4.21;58.57
72038;BME280;59900;50.788;12.904;2024-01-30T02:02:14;98754.94;;;4.18;58.58
72038;BME280;59900;50.788;12.904;2024-01-30T02:04:41;98763.59;;;4.19;58.56
72038;BME280;59900;50.788;12.904;2024-01-30T02:07:07;98758.63;;;4.16;58.93
72038;BME280;59900;50.788;12.904;2024-01-30T02:09:32;98762.06;;;4.16;58.85
72038;BME280;59900;50.788;12.904;2024-01-30T02:11:57;98764.19;;;4.11;58.84
72038;BME280;59900;50.788;12.904;2024-01-30T02:14:22;98768.59;;;4.11;58.97
72038;BME280;59900;50.788;12.904;2024-01-30T02:16:48;98758.44;;;4.08;59.38
72038;BME280;59900;50.788;12.904;2024-01-30T02:19:13;98757.03;;;4.04;59.18
72038;BME280;59900;50.788;12.904;2024-01-30T02:21:38;98764.59;;;4.07;59.05
72038;BME280;59900;50.788;12.904;2024-01-30T02:24:04;98760.06;;;4.09;59.26
72038;BME280;59900;50.788;12.904;2024-01-30T02:26:30;98754.88;;;4.09;59.21
72038;BME280;59900;50.788;12.904;2024-01-30T02:28:55;98760.66;;;4.12;59.12
72038;BME280;59900;50.788;12.904;2024-01-30T02:31:20;98760.66;;;4.12;59.03
72038;BME280;59900;50.788;12.904;2024-01-30T02:33:46;98756.38;;;4.11;58.97
72038;BME280;59900;50.788;12.904;2024-01-30T02:36:11;98762.56;;;4.10;59.23
72038;BME280;59900;50.788;12.904;2024-01-30T02:38:36;98758.31;;;4.09;59.32
72038;BME280;59900;50.788;12.904;2024-01-30T02:41:01;98763.41;;;4.11;58.81
72038;BME280;59900;50.788;12.904;2024-01-30T02:43:27;98757.13;;;4.13;58.83
72038;BME280;59900;50.788;12.904;2024-01-30T02:45:52;98752.75;;;4.14;59.46
72038;BME280;59900;50.788;12.904;2024-01-30T02:48:17;98745.63;;;4.16;59.39
72038;BME280;59900;50.788;12.904;2024-01-30T02:50:42;98748.81;;;4.19;59.36
72038;BME280;59900;50.788;12.904;2024-01-30T02:53:08;98743.34;;;4.22;59.59
72038;BME280;59900;50.788;12.904;2024-01-30T02:55:33;98743.34;;;4.22;59.40
72038;BME280;59900;50.788;12.904;2024-01-30T02:57:58;98744.03;;;4.24;59.64
72038;BME280;59900;50.788;12.904;2024-01-30T03:00:24;98736.22;;;4.24;59.69
72038;BME280;59900;50.788;12.904;2024-01-30T03:02:49;98738.94;;;4.23;59.87
72038;BME280;59900;50.788;12.904;2024-01-30T03:05:14;98737.91;;;4.25;59.95
72038;BME280;59900;50.788;12.904;2024-01-30T03:07:40;98738.69;;;4.26;60.27
72038;BME280;59900;50.788;12.904;2024-01-30T03:10:05;98740.34;;;4.27;59.96
72038;BME280;59900;50.788;12.904;2024-01-30T03:12:31;98742.59;;;4.31;60.45
72038;BME280;59900;50.788;12.904;2024-01-30T03:14:56;98744.13;;;4.34;60.88
72038;BME280;59900;50.788;12.904;2024-01-30T03:17:21;98743.28;;;4.33;60.97
72038;BME280;59900;50.788;12.904;2024-01-30T03:19:46;98740.78;;;4.32;60.51
72038;BME280;59900;50.788;12.904;2024-01-30T03:22:12;98735.34;;;4.35;60.55
72038;BME280;59900;50.788;12.904;2024-01-30T03:24:38;98738.91;;;4.34;60.77
72038;BME280;59900;50.788;12.904;2024-01-30T03:27:03;98742.34;;;4.34;60.85
72038;BME280;59900;50.788;12.904;2024-01-30T03:29:28;98738.06;;;4.33;60.87
72038;BME280;59900;50.788;12.904;2024-01-30T03:31:53;98734.38;;;4.36;60.94
72038;BME280;59900;50.788;12.904;2024-01-30T03:34:19;98727.28;;;4.38;60.98
72038;BME280;59900;50.788;12.904;2024-01-30T03:36:44;98739.34;;;4.39;61.03
72038;BME280;59900;50.788;12.904;2024-01-30T03:39:10;98734.13;;;4.39;60.97
72038;BME280;59900;50.788;12.904;2024-01-30T03:41:35;98732.72;;;4.35;61.03
72038;BME280;59900;50.788;12.904;2024-01-30T03:44:01;98725.19;;;4.32;60.96
72038;BME280;59900;50.788;12.904;2024-01-30T03:46:26;98723.66;;;4.29;61.13
72038;BME280;59900;50.788;12.904;2024-01-30T03:48:51;98733.38;;;4.27;61.77
72038;BME280;59900;50.788;12.904;2024-01-30T03:51:17;98727.34;;;4.27;61.86
72038;BME280;59900;50.788;12.904;2024-01-30T03:53:42;98732.97;;;4.32;61.80
72038;BME280;59900;50.788;12.904;2024-01-30T03:56:09;98722.31;;;4.35;61.76
72038;BME280;59900;50.788;12.904;2024-01-30T03:58:34;98722.91;;;4.38;61.69
72038;BME280;59900;50.788;12.904;2024-01-30T04:01:00;98721.13;;;4.39;61.75
72038;BME280;59900;50.788;12.904;2024-01-30T04:03:25;98718.38;;;4.40;61.28
72038;BME280;59900;50.788;12.904;2024-01-30T04:05:51;98718.38;;;4.40;61.58
72038;BME280;59900;50.788;12.904;2024-01-30T04:08:17;98722.31;;;4.35;61.77
72038;BME280;59900;50.788;12.904;2024-01-30T04:10:42;98719.19;;;4.31;61.91
72038;BME280;59900;50.788;12.904;2024-01-30T04:13:08;98717.63;;;4.29;62.11
72038;BME280;59900;50.788;12.904;2024-01-30T04:15:33;98716.44;;;4.33;62.04
72038;BME280;59900;50.788;12.904;2024-01-30T04:17:58;98719.59;;;4.36;61.94
72038;BME280;59900;50.788;12.904;2024-01-30T04:20:26;98711.41;;;4.41;61.71
72038;BME280;59900;50.788;12.904;2024-01-30T04:22:51;98712.91;;;4.43;61.54
72038;BME280;59900;50.788;12.904;2024-01-30T04:25:17;98717.19;;;4.44;61.70
72038;BME280;59900;50.788;12.904;2024-01-30T04:27:42;98711.16;;;4.44;61.54
72038;BME280;59900;50.788;12.904;2024-01-30T04:30:08;98706.91;;;4.43;61.81
72038;BME280;59900;50.788;12.904;2024-01-30T04:32:34;98714.59;;;4.44;61.50
72038;BME280;59900;50.788;12.904;2024-01-30T04:35:00;98707.59;;;4.45;61.39
72038;BME280;59900;50.788;12.904;2024-01-30T04:37:25;98707.59;;;4.45;61.21
72038;BME280;59900;50.788;12.904;2024-01-30T04:39:50;98706.09;;;4.42;61.58
72038;BME280;59900;50.788;12.904;2024-01-30T04:42:16;98705.25;;;4.42;61.34
72038;BME280;59900;50.788;12.904;2024-01-30T04:44:42;98702.91;;;4.39;61.54
72038;BME280;59900;50.788;12.904;2024-01-30T04:47:07;98699.38;;;4.40;61.76
72038;BME280;59900;50.788;12.904;2024-01-30T04:49:34;98702.75;;;4.40;61.30
72038;BME280;59900;50.788;12.904;2024-01-30T04:51:59;98698.97;;;4.44;60.96
72038;BME280;59900;50.788;12.904;2024-01-30T04:54:24;98700.63;;;4.45;61.05
72038;BME280;59900;50.788;12.904;2024-01-30T04:56:50;98701.44;;;4.46;60.94
72038;BME280;59900;50.788;12.904;2024-01-30T04:59:16;98701.31;;;4.47;61.09
72038;BME280;59900;50.788;12.904;2024-01-30T05:01:41;98694.44;;;4.46;61.02
72038;BME280;59900;50.788;12.904;2024-01-30T05:04:09;98704.44;;;4.41;61.52
72038;BME280;59900;50.788;12.904;2024-01-30T05:06:35;98700.56;;;4.36;61.56
72038;BME280;59900;50.788;12.904;2024-01-30T05:09:00;98703.56;;;4.31;61.78
72038;BME280;59900;50.788;12.904;2024-01-30T05:11:25;98700.50;;;4.26;61.89
72038;BME280;59900;50.788;12.904;2024-01-30T05:13:51;98703.75;;;4.19;62.01
72038;BME280;59900;50.788;12.904;2024-01-30T05:16:16;98708.78;;;4.11;62.15
72038;BME280;59900;50.788;12.904;2024-01-30T05:18:41;98709.97;;;4.07;62.33
72038;BME280;59900;50.788;12.904;2024-01-30T05:21:06;98701.97;;;3.99;62.56
72038;BME280;59900;50.788;12.904;2024-01-30T05:23:31;98696.19;;;3.95;62.74
72038;BME280;59900;50.788;12.904;2024-01-30T05:25:57;98703.81;;;3.87;63.02
72038;BME280;59900;50.788;12.904;2024-01-30T05:28:22;98698.28;;;3.80;62.67
72038;BME280;59900;50.788;12.904;2024-01-30T05:30:47;98700.03;;;3.80;62.95
72038;BME280;59900;50.788;12.904;2024-01-30T05:33:13;98694.84;;;3.80;63.18
72038;BME280;59900;50.788;12.904;2024-01-30T05:35:38;98693.31;;;3.77;62.85
72038;BME280;59900;50.788;12.904;2024-01-30T05:38:03;98691.81;;;3.75;63.21
72038;BME280;59900;50.788;12.904;2024-01-30T05:40:29;98699.59;;;3.75;63.07
72038;BME280;59900;50.788;12.904;2024-01-30T05:42:55;98695.34;;;3.74;63.33
72038;BME280;59900;50.788;12.904;2024-01-30T05:45:20;98699.59;;;3.75;63.25
72038;BME280;59900;50.788;12.904;2024-01-30T05:47:46;98695.34;;;3.74;63.54
72038;BME280;59900;50.788;12.904;2024-01-30T05:50:11;98697.25;;;3.72;63.64
72038;BME280;59900;50.788;12.904;2024-01-30T05:52:36;98692.16;;;3.70;63.78
72038;BME280;59900;50.788;12.904;2024-01-30T05:55:01;98690.53;;;3.69;63.69
72038;BME280;59900;50.788;12.904;2024-01-30T05:57:28;98704.47;;;3.68;63.02
72038;BME280;59900;50.788;12.904;2024-01-30T05:59:53;98703.38;;;3.71;63.30
72038;BME280;59900;50.788;12.904;2024-01-30T06:02:18;98708.97;;;3.66;63.60
72038;BME280;59900;50.788;12.904;2024-01-30T06:04:43;98713.59;;;3.63;63.68
72038;BME280;59900;50.788;12.904;2024-01-30T06:07:09;98710.06;;;3.64;63.85
72038;BME280;59900;50.788;12.904;2024-01-30T06:09:34;98710.06;;;3.64;63.58
72038;BME280;59900;50.788;12.904;2024-01-30T06:12:00;98713.34;;;3.66;63.54
72038;BME280;59900;50.788;12.904;2024-01-30T06:14:25;98717.47;;;3.68;63.88
72038;BME280;59900;50.788;12.904;2024-01-30T06:16:50;98712.25;;;3.68;63.48
72038;BME280;59900;50.788;12.904;2024-01-30T06:19:15;98713.44;;;3.64;63.86
72038;BME280;59900;50.788;12.904;2024-01-30T06:21:41;98713.34;;;3.66;63.58
72038;BME280;59900;50.788;12.904;2024-01-30T06:24:06;98716.78;;;3.66;63.68
72038;BME280;59900;50.788;12.904;2024-01-30T06:26:31;98710.75;;;3.66;63.78
72038;BME280;59900;50.788;12.904;2024-01-30T06:28:56;98713.69;;;3.61;64.19
72038;BME280;59900;50.788;12.904;2024-01-30T06:31:22;98709.72;;;3.57;64.38
72038;BME280;59900;50.788;12.904;2024-01-30T06:33:47;98712.66;;;3.53;64.84
72038;BME280;59900;50.788;12.904;2024-01-30T06:36:12;98712.34;;;3.46;64.96
72038;BME280;59900;50.788;12.904;2024-01-30T06:38:38;98712.34;;;3.46;64.93
72038;BME280;59900;50.788;12.904;2024-01-30T06:41:03;98715.06;;;3.45;65.08
72038;BME280;59900;50.788;12.904;2024-01-30T06:43:28;98710.94;;;3.42;65.16
72038;BME280;59900;50.788;12.904;2024-01-30T06:45:54;98717.91;;;3.42;65.39
72038;BME280;59900;50.788;12.904;2024-01-30T06:48:19;98717.44;;;3.36;65.54
72038;BME280;59900;50.788;12.904;2024-01-30T06:50:44;98714.16;;;3.34;65.18
72038;BME280;59900;50.788;12.904;2024-01-30T06:53:10;98710.13;;;3.30;65.35
72038;BME280;59900;50.788;12.904;2024-01-30T06:55:35;98714.63;;;3.28;65.64
72038;BME280;59900;50.788;12.904;2024-01-30T06:58:01;98712.03;;;3.28;65.89
72038;BME280;59900;50.788;12.904;2024-01-30T07:00:26;98716.16;;;3.31;65.66
72038;BME280;59900;50.788;12.904;2024-01-30T07:02:51;98717.94;;;3.30;65.84
72038;BME280;59900;50.788;12.904;2024-01-30T07:05:16;98714.63;;;3.28;66.00
72038;BME280;59900;50.788;12.904;2024-01-30T07:07:42;98724.31;;;3.26;66.01
72038;BME280;59900;50.788;12.904;2024-01-30T07:10:08;98731.16;;;3.27;65.71
72038;BME280;59900;50.788;12.904;2024-01-30T07:12:33;98733.06;;;3.25;65.88
72038;BME280;59900;50.788;12.904;2024-01-30T07:14:58;98736.13;;;3.30;65.64
72038;BME280;59900;50.788;12.904;2024-01-30T07:17:24;98739.91;;;3.37;65.58
72038;BME280;59900;50.788;12.904;2024-01-30T07:19:50;98735.97;;;3.43;65.81
72038;BME280;59900;50.788;12.904;2024-01-30T07:22:15;98735.84;;;3.45;65.71
72038;BME280;59900;50.788;12.904;2024-01-30T07:24:43;98731.81;;;3.52;65.15
72038;BME280;59900;50.788;12.904;2024-01-30T07:27:14;98733.94;;;3.58;65.14
72038;BME280;59900;50.788;12.904;2024-01-30T07:29:39;98724.22;;;3.60;65.25
72038;BME280;59900;50.788;12.904;2024-01-30T07:32:04;98724.09;;;3.61;65.50
72038;BME280;59900;50.788;12.904;2024-01-30T07:34:30;98735.16;;;3.74;64.14
72038;BME280;59900;50.788;12.904;2024-01-30T07:36:55;98741.72;;;3.89;63.91
72038;BME280;59900;50.788;12.904;2024-01-30T07:39:20;98741.81;;;3.99;63.67
72038;BME280;59900;50.788;12.904;2024-01-30T07:41:46;98752.06;;;4.01;63.67
72038;BME280;59900;50.788;12.904;2024-01-30T07:44:11;98753.59;;;4.03;63.30
72038;BME280;59900;50.788;12.904;2024-01-30T07:46:36;98755.94;;;4.06;63.02
72038;BME280;59900;50.788;12.904;2024-01-30T07:49:02;98750.13;;;4.14;62.75
72038;BME280;59900;50.788;12.904;2024-01-30T07:51:27;98745.94;;;4.22;62.75
72038;BME280;59900;50.788;12.904;2024-01-30T07:53:54;98747.06;;;4.29;62.60
72038;BME280;59900;50.788;12.904;2024-01-30T07:56:19;98750.94;;;4.35;62.09
72038;BME280;59900;50.788;12.904;2024-01-30T07:58:44;98748.66;;;4.41;62.17
72038;BME280;59900;50.788;12.904;2024-01-30T08:01:10;98755.28;;;4.45;62.06
72038;BME280;59900;50.788;12.904;2024-01-30T08:03:35;98753.78;;;4.52;61.74
72038;BME280;59900;50.788;12.904;2024-01-30T08:06:02;98750.81;;;4.57;61.58
72038;BME280;59900;50.788;12.904;2024-01-30T08:08:27;98756.59;;;4.61;61.98
72038;BME280;59900;50.788;12.904;2024-01-30T08:10:53;98754.25;;;4.58;61.51
72038;BME280;59900;50.788;12.904;2024-01-30T08:13:18;98747.13;;;4.60;61.29
72038;BME280;59900;50.788;12.904;2024-01-30T08:15:43;98751.94;;;4.64;61.45
72038;BME280;59900;50.788;12.904;2024-01-30T08:18:09;98746.22;;;4.70;61.24
72038;BME280;59900;50.788;12.904;2024-01-30T08:20:34;98737.22;;;4.74;60.94
72038;BME280;59900;50.788;12.904;2024-01-30T08:23:00;98737.53;;;4.81;61.30
72038;BME280;59900;50.788;12.904;2024-01-30T08:25:25;98742.47;;;4.84;61.16
72038;BME280;59900;50.788;12.904;2024-01-30T08:27:50;98737.69;;;4.89;60.21
72038;BME280;59900;50.788;12.904;2024-01-30T08:30:16;98731.69;;;4.98;59.37
72038;BME280;59900;50.788;12.904;2024-01-30T08:32:41;98726.63;;;5.06;57.56
72038;BME280;59900;50.788;12.904;2024-01-30T08:35:06;98728.34;;;5.17;57.47
72038;BME280;59900;50.788;12.904;2024-01-30T08:37:32;98737.13;;;5.25;57.23
72038;BME280;59900;50.788;12.904;2024-01-30T08:39:57;98721.66;;;5.33;57.46
72038;BME280;59900;50.788;12.904;2024-01-30T08:42:22;98732.91;;;5.43;57.66
72038;BME280;59900;50.788;12.904;2024-01-30T08:44:51;98720.84;;;5.52;57.46
72038;BME280;59900;50.788;12.904;2024-01-30T08:47:18;98723.47;;;5.61;56.49
72038;BME280;59900;50.788;12.904;2024-01-30T08:49:44;98722.66;;;5.71;55.58
72038;BME280;59900;50.788;12.904;2024-01-30T08:52:10;98727.47;;;5.85;53.58
72038;BME280;59900;50.788;12.904;2024-01-30T08:54:35;98719.25;;;5.99;52.86
72038;BME280;59900;50.788;12.904;2024-01-30T08:57:01;98723.25;;;6.12;52.55
72038;BME280;59900;50.788;12.904;2024-01-30T08:59:26;98718.41;;;6.27;52.53
72038;BME280;59900;50.788;12.904;2024-01-30T09:01:51;98719.91;;;6.39;52.17
72038;BME280;59900;50.788;12.904;2024-01-30T09:04:19;98722.47;;;6.49;51.88
72038;BME280;59900;50.788;12.904;2024-01-30T09:06:45;98722.44;;;6.58;52.59
72038;BME280;59900;50.788;12.904;2024-01-30T09:09:10;98724.50;;;6.64;51.98
72038;BME280;59900;50.788;12.904;2024-01-30T09:11:35;98730.81;;;6.71;52.24
72038;BME280;59900;50.788;12.904;2024-01-30T09:14:01;98734.09;;;6.73;52.70
72038;BME280;59900;50.788;12.904;2024-01-30T09:16:26;98729.13;;;6.80;52.88
72038;BME280;59900;50.788;12.904;2024-01-30T09:18:51;98728.41;;;6.88;52.11
72038;BME280;59900;50.788;12.904;2024-01-30T09:21:16;98725.09;;;6.95;52.21
72038;BME280;59900;50.788;12.904;2024-01-30T09:23:42;98730.25;;;7.05;51.92
72038;BME280;59900;50.788;12.904;2024-01-30T09:26:07;98731.03;;;7.15;51.10
72038;BME280;59900;50.788;12.904;2024-01-30T09:28:32;98738.69;;;7.26;50.87
72038;BME280;59900;50.788;12.904;2024-01-30T09:30:58;98738.78;;;7.34;50.08
72038;BME280;59900;50.788;12.904;2024-01-30T09:33:23;98732.81;;;7.42;49.42
72038;BME280;59900;50.788;12.904;2024-01-30T09:35:48;98723.94;;;7.52;49.53
72038;BME280;59900;50.788;12.904;2024-01-30T09:38:13;98718.50;;;7.63;49.16
72038;BME280;59900;50.788;12.904;2024-01-30T09:40:39;98711.41;;;7.73;49.15
72038;BME280;59900;50.788;12.904;2024-01-30T09:43:04;98719.19;;;7.83;49.66
72038;BME280;59900;50.788;12.904;2024-01-30T09:45:29;98725.31;;;7.92;49.30
72038;BME280;59900;50.788;12.904;2024-01-30T09:47:55;98725.25;;;8.01;49.51
72038;BME280;59900;50.788;12.904;2024-01-30T09:50:20;98720.06;;;8.09;49.23
72038;BME280;59900;50.788;12.904;2024-01-30T09:52:46;98723.06;;;8.14;48.00
72038;BME280;59900;50.788;12.904;2024-01-30T09:55:12;98725.59;;;8.24;47.98
72038;BME280;59900;50.788;12.904;2024-01-30T09:57:38;98716.16;;;8.31;47.47
72038;BME280;59900;50.788;12.904;2024-01-30T10:00:04;98711.00;;;8.39;47.36
72038;BME280;59900;50.788;12.904;2024-01-30T10:02:32;98709.25;;;8.48;47.51
72038;BME280;59900;50.788;12.904;2024-01-30T10:04:57;98704.06;;;8.56;47.23
72038;BME280;59900;50.788;12.904;2024-01-30T10:07:22;98708.38;;;8.65;46.65
72038;BME280;59900;50.788;12.904;2024-01-30T10:09:48;98708.41;;;8.73;46.33
72038;BME280;59900;50.788;12.904;2024-01-30T10:12:15;98712.91;;;8.80;46.09
72038;BME280;59900;50.788;12.904;2024-01-30T10:14:41;98707.69;;;8.88;45.23
72038;BME280;59900;50.788;12.904;2024-01-30T10:17:10;98719.03;;;8.97;46.83
72038;BME280;59900;50.788;12.904;2024-01-30T10:19:39;98708.25;;;9.00;47.37
72038;BME280;59900;50.788;12.904;2024-01-30T10:22:05;98710.69;;;9.01;47.22
72038;BME280;59900;50.788;12.904;2024-01-30T10:24:30;98705.81;;;9.07;47.07
72038;BME280;59900;50.788;12.904;2024-01-30T10:26:56;98699.13;;;9.12;46.79
72038;BME280;59900;50.788;12.904;2024-01-30T10:29:21;98697.00;;;9.16;47.16
72038;BME280;59900;50.788;12.904;2024-01-30T10:31:57;98697.34;;;9.29;46.85
72038;BME280;59900;50.788;12.904;2024-01-30T10:34:22;98693.44;;;9.33;46.14
72038;BME280;59900;50.788;12.904;2024-01-30T10:36:49;98696.72;;;9.35;44.31
72038;BME280;59900;50.788;12.904;2024-01-30T10:39:17;98686.88;;;9.37;44.95
72038;BME280;59900;50.788;12.904;2024-01-30T10:41:43;98686.25;;;9.43;44.42
72038;BME280;59900;50.788;12.904;2024-01-30T10:44:10;98682.00;;;9.50;44.56
72038;BME280;59900;50.788;12.904;2024-01-30T10:46:38;98677.75;;;9.57;44.72
72038;BME280;59900;50.788;12.904;2024-01-30T10:49:04;98684.19;;;9.63;45.27
72038;BME280;59900;50.788;12.904;2024-01-30T10:51:31;98680.72;;;9.70;44.65
72038;BME280;59900;50.788;12.904;2024-01-30T10:53:56;98674.00;;;9.76;45.25
72038;BME280;59900;50.788;12.904;2024-01-30T10:56:22;98674.69;;;9.86;45.25
72038;BME280;59900;50.788;12.904;2024-01-30T10:58:50;98673.19;;;9.91;46.13
72038;BME280;59900;50.788;12.904;2024-01-30T11:01:15;98677.47;;;10.00;45.92
72038;BME280;59900;50.788;12.904;2024-01-30T11:03:41;98669.91;;;10.05;46.66
72038;BME280;59900;50.788;12.904;2024-01-30T11:06:10;98663.34;;;10.09;46.91
72038;BME280;59900;50.788;12.904;2024-01-30T11:08:36;98660.75;;;10.18;47.25
72038;BME280;59900;50.788;12.904;2024-01-30T11:11:08;98663.88;;;10.21;47.75
72038;BME280;59900;50.788;12.904;2024-01-30T11:13:34;98664.81;;;10.28;48.16
72038;BME280;59900;50.788;12.904;2024-01-30T11:16:05;98663.34;;;10.34;48.32
72038;BME280;59900;50.788;12.904;2024-01-30T11:18:32;98658.56;;;10.37;49.12
72038;BME280;59900;50.788;12.904;2024-01-30T11:20:59;98653.47;;;10.44;49.92
72038;BME280;59900;50.788;12.904;2024-01-30T11:23:26;98647.69;;;10.48;50.52
72038;BME280;59900;50.788;12.904;2024-01-30T11:25:53;98648.03;;;10.53;51.65
72038;BME280;59900;50.788;12.904;2024-01-30T11:28:18;98653.75;;;10.57;52.55
72038;BME280;59900;50.788;12.904;2024-01-30T11:30:45;98652.44;;;10.61;53.52
72038;BME280;59900;50.788;12.904;2024-01-30T11:33:13;98648.00;;;10.61;54.69
72038;BME280;59900;50.788;12.904;2024-01-30T11:35:44;98639.59;;;10.66;55.32
72038;BME280;59900;50.788;12.904;2024-01-30T11:38:10;98639.25;;;10.69;55.66
72038;BME280;59900;50.788;12.904;2024-01-30T11:40:39;98639.94;;;10.71;55.75
72038;BME280;59900;50.788;12.904;2024-01-30T11:43:07;98641.56;;;10.72;56.19
72038;BME280;59900;50.788;12.904;2024-01-30T11:45:34;98644.19;;;10.72;56.29
72038;BME280;59900;50.788;12.904;2024-01-30T11:48:00;98658.81;;;10.75;56.36
72038;BME280;59900;50.788;12.904;2024-01-30T11:50:28;98635.81;;;10.77;56.75
72038;BME280;59900;50.788;12.904;2024-01-30T11:52:54;98634.97;;;10.76;56.69
72038;BME280;59900;50.788;12.904;2024-01-30T11:55:20;98646.31;;;10.77;56.75
72038;BME280;59900;50.788;12.904;2024-01-30T11:57:45;98644.19;;;10.80;56.59
72038;BME280;59900;50.788;12.904;2024-01-30T12:00:17;98633.66;;;10.80;56.79
72038;BME280;59900;50.788;12.904;2024-01-30T12:02:44;98628.56;;;10.79;56.98
72038;BME280;59900;50.788;12.904;2024-01-30T12:05:09;98630.03;;;10.81;57.17
72038;BME280;59900;50.788;12.904;2024-01-30T12:07:35;98639.72;;;10.81;57.11
72038;BME280;59900;50.788;12.904;2024-01-30T12:10:01;98626.75;;;10.79;57.43
72038;BME280;59900;50.788;12.904;2024-01-30T12:12:27;98635.28;;;10.81;57.17
72038;BME280;59900;50.788;12.904;2024-01-30T12:14:54;98630.31;;;10.86;57.33
72038;BME280;59900;50.788;12.904;2024-01-30T12:17:30;98629.97;;;10.89;57.27
72038;BME280;59900;50.788;12.904;2024-01-30T12:20:06;98628.31;;;10.96;57.24
72038;BME280;59900;50.788;12.904;2024-01-30T12:22:42;98626.16;;;11.00;56.93
72038;BME280;59900;50.788;12.904;2024-01-30T12:25:12;98619.75;;;11.02;56.76
72038;BME280;59900;50.788;12.904;2024-01-30T12:27:38;98623.84;;;11.05;56.73
72038;BME280;59900;50.788;12.904;2024-01-30T12:30:11;98624.13;;;11.10;56.79
72038;BME280;59900;50.788;12.904;2024-01-30T12:32:41;98614.28;;;11.12;56.97
72038;BME280;59900;50.788;12.904;2024-01-30T12:35:10;98616.09;;;11.11;56.43
72038;BME280;59900;50.788;12.904;2024-01-30T12:37:37;98615.75;;;11.14;56.69
72038;BME280;59900;50.788;12.904;2024-01-30T12:40:02;98623.78;;;11.21;56.68
72038;BME280;59900;50.788;12.904;2024-01-30T12:42:28;98618.94;;;11.24;56.68
72038;BME280;59900;50.788;12.904;2024-01-30T12:44:53;98615.00;;;11.29;56.20
72038;BME280;59900;50.788;12.904;2024-01-30T12:47:21;98614.66;;;11.32;56.21
72038;BME280;59900;50.788;12.904;2024-01-30T12:49:46;98616.94;;;11.35;56.37